sensor_id;sensor_type;location;lat;lon;timestamp;pressure;altitude;pressure_sealevel;temperature;humidity
71361;BME280;59166;48.908;1.870;2023-03-25T00:04:27;99677.13;;;8.22;96.20
71361;BME280;59166;48.908;1.870;2023-03-25T00:09:27;99672.78;;;8.16;97.64
71361;BME280;59166;48.908;1.870;2023-03-25T00:14:28;99676.22;;;8.12;98.26
71361;BME280;59166;48.908;1.870;2023-03-25T00:19:31;99673.06;;;8.20;97.95
71361;BME280;59166;48.908;1.870;2023-03-25T00:24:32;99671.69;;;8.17;98.10
71361;BME280;59166;48.908;1.870;2023-03-25T00:29:33;99682.75;;;8.21;99.56
71361;BME280;59166;48.908;1.870;2023-03-25T00:34:35;99684.06;;;8.18;100.00
71361;BME280;59166;48.908;1.870;2023-03-25T00:39:36;99688.41;;;8.19;100.00
71361;BME280;59166;48.908;1.870;2023-03-25T00:44:36;99690.03;;;8.25;100.00
71361;BME280;59166;48.908;1.870;2023-03-25T00:49:39;99686.28;;;8.26;100.00
71361;BME280;59166;48.908;1.870;2023-03-25T00:54:40;99679.28;;;8.25;100.00
71361;BME280;59166;48.908;1.870;2023-03-25T00:59:40;99684.91;;;8.24;100.00
71361;BME280;59166;48.908;1.870;2023-03-25T01:04:42;99689.50;;;8.28;100.00
71361;BME280;59166;48.908;1.870;2023-03-25T01:09:43;99672.31;;;8.29;100.00
71361;BME280;59166;48.908;1.870;2023-03-25T01:14:44;99673.41;;;8.34;100.00
71361;BME280;59166;48.908;1.870;2023-03-25T01:19:46;99664.75;;;8.26;100.00
71361;BME280;59166;48.908;1.870;2023-03-25T01:24:46;99659.44;;;8.37;100.00
71361;BME280;59166;48.908;1.870;2023-03-25T01:29:47;99659.44;;;8.37;100.00
71361;BME280;59166;48.908;1.870;2023-03-25T01:34:49;99641.91;;;8.29;100.00
71361;BME280;59166;48.908;1.870;2023-03-25T01:39:50;99638.72;;;8.37;100.00
71361;BME280;59166;48.908;1.870;2023-03-25T01:45:10;99630.41;;;8.44;100.00
71361;BME280;59166;48.908;1.870;2023-03-25T01:50:14;99629.31;;;8.45;100.00
71361;BME280;59166;48.908;1.870;2023-03-25T01:55:15;99633.66;;;8.51;100.00
71361;BME280;59166;48.908;1.870;2023-03-25T02:00:16;99637.44;;;8.55;100.00
71361;BME280;59166;48.908;1.870;2023-03-25T02:05:21;99631.78;;;8.56;100.00
71361;BME280;59166;48.908;1.870;2023-03-25T02:10:24;99628.03;;;8.57;100.00
71361;BME280;59166;48.908;1.870;2023-03-25T02:15:25;99629.91;;;8.62;100.00
71361;BME280;59166;48.908;1.870;2023-03-25T02:20:49;99625.63;;;8.61;100.00
71361;BME280;59166;48.908;1.870;2023-03-25T02:31:56;99625.91;;;8.69;100.00
71361;BME280;59166;48.908;1.870;2023-03-25T02:42:48;99627.00;;;8.78;99.48
71361;BME280;59166;48.908;1.870;2023-03-25T02:47:56;99610.59;;;8.80;99.29
71361;BME280;59166;48.908;1.870;2023-03-25T02:54:08;99623.00;;;8.81;98.85
71361;BME280;59166;48.908;1.870;2023-03-25T03:05:44;99631.59;;;8.73;99.06
71361;BME280;59166;48.908;1.870;2023-03-25T03:10:34;99628.91;;;8.73;98.58
71361;BME280;59166;48.908;1.870;2023-03-25T03:16:24;99631.03;;;8.66;97.96
71361;BME280;59166;48.908;1.870;2023-03-25T03:27:09;99629.47;;;8.80;95.86
71361;BME280;59166;48.908;1.870;2023-03-25T03:32:25;99634.06;;;8.85;94.86
71361;BME280;59166;48.908;1.870;2023-03-25T03:37:50;99630.00;;;8.82;94.66
71361;BME280;59166;48.908;1.870;2023-03-25T03:43:03;99649.41;;;8.84;94.89
71361;BME280;59166;48.908;1.870;2023-03-25T03:48:12;99661.78;;;8.85;94.93
71361;BME280;59166;48.908;1.870;2023-03-25T03:53:45;99641.38;;;8.94;94.11
71361;BME280;59166;48.908;1.870;2023-03-25T03:58:59;99662.97;;;9.04;94.27
71361;BME280;59166;48.908;1.870;2023-03-25T04:04:04;99673.75;;;9.14;92.88
71361;BME280;59166;48.908;1.870;2023-03-25T04:09:24;99661.88;;;9.10;93.30
71361;BME280;59166;48.908;1.870;2023-03-25T04:14:33;99648.66;;;9.04;93.70
71361;BME280;59166;48.908;1.870;2023-03-25T04:19:37;99653.78;;;9.00;93.45
71361;BME280;59166;48.908;1.870;2023-03-25T04:24:41;99662.66;;;8.96;92.56
71361;BME280;59166;48.908;1.870;2023-03-25T04:29:44;99676.41;;;8.94;92.45
71361;BME280;59166;48.908;1.870;2023-03-25T04:34:50;99680.63;;;8.85;92.92
71361;BME280;59166;48.908;1.870;2023-03-25T04:39:57;99694.16;;;8.90;91.12
71361;BME280;59166;48.908;1.870;2023-03-25T04:45:08;99691.97;;;8.87;91.25
71361;BME280;59166;48.908;1.870;2023-03-25T04:50:23;99684.66;;;8.82;90.42
71361;BME280;59166;48.908;1.870;2023-03-25T04:55:29;99697.38;;;8.92;91.56
71361;BME280;59166;48.908;1.870;2023-03-25T05:00:33;99708.66;;;8.84;91.51
71361;BME280;59166;48.908;1.870;2023-03-25T05:05:52;99715.59;;;8.75;91.19
71361;BME280;59166;48.908;1.870;2023-03-25T05:10:54;99724.78;;;8.74;91.29
71361;BME280;59166;48.908;1.870;2023-03-25T05:16:00;99727.41;;;8.69;90.95
71361;BME280;59166;48.908;1.870;2023-03-25T05:21:04;99727.41;;;8.69;91.13
71361;BME280;59166;48.908;1.870;2023-03-25T05:26:06;99746.31;;;8.79;91.64
71361;BME280;59166;48.908;1.870;2023-03-25T05:31:12;99754.41;;;8.79;91.66
71361;BME280;59166;48.908;1.870;2023-03-25T05:36:28;99763.00;;;8.76;92.42
71361;BME280;59166;48.908;1.870;2023-03-25T05:41:34;99775.66;;;8.75;93.00
71361;BME280;59166;48.908;1.870;2023-03-25T05:46:40;99777.25;;;8.71;92.41
71361;BME280;59166;48.908;1.870;2023-03-25T05:51:44;99771.56;;;8.63;93.60
71361;BME280;59166;48.908;1.870;2023-03-25T05:56:53;99787.66;;;8.58;94.70
71361;BME280;59166;48.908;1.870;2023-03-25T06:02:06;99783.59;;;8.50;96.27
71361;BME280;59166;48.908;1.870;2023-03-25T06:07:07;99800.03;;;8.54;96.12
71361;BME280;59166;48.908;1.870;2023-03-25T06:12:16;99795.66;;;8.43;97.11
71361;BME280;59166;48.908;1.870;2023-03-25T06:17:25;99795.88;;;8.41;98.27
71361;BME280;59166;48.908;1.870;2023-03-25T06:22:26;99810.13;;;8.37;99.41
71361;BME280;59166;48.908;1.870;2023-03-25T06:27:27;99825.41;;;8.26;100.00
71361;BME280;59166;48.908;1.870;2023-03-25T06:32:33;99818.97;;;8.32;100.00
71361;BME280;59166;48.908;1.870;2023-03-25T06:37:38;99832.13;;;8.28;99.73
71361;BME280;59166;48.908;1.870;2023-03-25T06:42:40;99838.56;;;8.27;100.00
71361;BME280;59166;48.908;1.870;2023-03-25T06:47:43;99835.88;;;8.27;100.00
71361;BME280;59166;48.908;1.870;2023-03-25T06:52:44;99844.81;;;8.33;100.00
71361;BME280;59166;48.908;1.870;2023-03-25T06:57:48;99850.53;;;8.42;100.00
71361;BME280;59166;48.908;1.870;2023-03-25T07:02:59;99840.88;;;8.46;99.99
71361;BME280;59166;48.908;1.870;2023-03-25T07:08:03;99847.09;;;8.46;99.83
71361;BME280;59166;48.908;1.870;2023-03-25T07:13:05;99860.34;;;8.58;99.38
71361;BME280;59166;48.908;1.870;2023-03-25T07:18:08;99851.78;;;8.61;98.80
71361;BME280;59166;48.908;1.870;2023-03-25T07:23:20;99859.34;;;8.64;97.84
71361;BME280;59166;48.908;1.870;2023-03-25T07:28:22;99864.16;;;8.62;97.36
71361;BME280;59166;48.908;1.870;2023-03-25T07:33:31;99864.88;;;8.84;96.20
71361;BME280;59166;48.908;1.870;2023-03-25T07:38:36;99879.50;;;8.93;94.87
71361;BME280;59166;48.908;1.870;2023-03-25T07:43:54;99881.81;;;9.21;93.76
71361;BME280;59166;48.908;1.870;2023-03-25T07:49:03;99898.63;;;9.44;92.45
71361;BME280;59166;48.908;1.870;2023-03-25T07:54:10;99898.47;;;9.65;90.64
71361;BME280;59166;48.908;1.870;2023-03-25T07:59:19;99905.78;;;9.80;89.04
71361;BME280;59166;48.908;1.870;2023-03-25T08:04:31;99912.81;;;9.86;89.05
71361;BME280;59166;48.908;1.870;2023-03-25T08:09:32;99922.28;;;9.94;89.06
71361;BME280;59166;48.908;1.870;2023-03-25T08:14:36;99927.97;;;9.97;89.03
71361;BME280;59166;48.908;1.870;2023-03-25T08:19:39;99933.63;;;10.01;89.09
71361;BME280;59166;48.908;1.870;2023-03-25T08:24:41;99931.25;;;10.14;88.24
71361;BME280;59166;48.908;1.870;2023-03-25T08:29:42;99935.63;;;10.35;86.65
71361;BME280;59166;48.908;1.870;2023-03-25T08:34:44;99923.22;;;10.40;85.61
71361;BME280;59166;48.908;1.870;2023-03-25T08:39:46;99926.50;;;10.82;83.73
71361;BME280;59166;48.908;1.870;2023-03-25T08:44:47;99932.56;;;11.58;79.71
71361;BME280;59166;48.908;1.870;2023-03-25T08:49:52;99929.81;;;11.73;77.02
71361;BME280;59166;48.908;1.870;2023-03-25T08:54:53;99928.69;;;12.33;77.99
71361;BME280;59166;48.908;1.870;2023-03-25T08:59:54;99930.00;;;11.87;78.90
71361;BME280;59166;48.908;1.870;2023-03-25T09:04:56;99930.41;;;12.14;75.91
71361;BME280;59166;48.908;1.870;2023-03-25T09:09:57;99939.97;;;12.02;77.01
71361;BME280;59166;48.908;1.870;2023-03-25T09:14:58;99934.16;;;12.23;73.13
71361;BME280;59166;48.908;1.870;2023-03-25T09:20:01;99943.72;;;12.06;75.61
71361;BME280;59166;48.908;1.870;2023-03-25T09:25:02;99953.91;;;11.75;76.33
71361;BME280;59166;48.908;1.870;2023-03-25T09:30:05;99977.25;;;11.35;79.30
71361;BME280;59166;48.908;1.870;2023-03-25T09:35:07;99983.75;;;11.29;81.34
71361;BME280;59166;48.908;1.870;2023-03-25T09:40:10;99975.81;;;11.78;78.59
71361;BME280;59166;48.908;1.870;2023-03-25T09:45:22;99983.63;;;11.80;78.65
71361;BME280;59166;48.908;1.870;2023-03-25T09:50:28;99985.81;;;11.73;75.63
71361;BME280;59166;48.908;1.870;2023-03-25T09:55:32;99976.25;;;12.55;76.56
71361;BME280;59166;48.908;1.870;2023-03-25T10:00:34;99986.94;;;12.75;74.20
71361;BME280;59166;48.908;1.870;2023-03-25T10:06:00;99988.63;;;13.33;72.05
71361;BME280;59166;48.908;1.870;2023-03-25T10:11:06;99981.69;;;12.88;69.58
71361;BME280;59166;48.908;1.870;2023-03-25T10:16:14;99975.59;;;13.07;69.61
71361;BME280;59166;48.908;1.870;2023-03-25T10:21:25;100001.34;;;13.04;71.07
71361;BME280;59166;48.908;1.870;2023-03-25T10:26:31;100005.13;;;13.08;75.61
71361;BME280;59166;48.908;1.870;2023-03-25T10:31:52;100012.78;;;12.62;71.82
71361;BME280;59166;48.908;1.870;2023-03-25T10:37:02;100005.34;;;12.83;72.03
71361;BME280;59166;48.908;1.870;2023-03-25T10:42:23;100005.25;;;12.93;72.12
71361;BME280;59166;48.908;1.870;2023-03-25T10:47:27;100007.75;;;12.46;71.94
71361;BME280;59166;48.908;1.870;2023-03-25T10:52:32;100015.19;;;12.15;77.08
71361;BME280;59166;48.908;1.870;2023-03-25T10:57:37;100009.47;;;12.16;76.68
71361;BME280;59166;48.908;1.870;2023-03-25T11:02:38;100012.00;;;12.57;77.21
71361;BME280;59166;48.908;1.870;2023-03-25T11:07:42;100008.78;;;12.50;73.53
71361;BME280;59166;48.908;1.870;2023-03-25T11:12:48;100019.47;;;12.75;74.18
71361;BME280;59166;48.908;1.870;2023-03-25T11:18:06;100025.50;;;13.01;70.31
71361;BME280;59166;48.908;1.870;2023-03-25T11:23:17;100033.13;;;12.99;73.51
71361;BME280;59166;48.908;1.870;2023-03-25T11:28:33;100024.94;;;13.04;70.94
71361;BME280;59166;48.908;1.870;2023-03-25T11:33:35;100025.41;;;13.16;73.53
71361;BME280;59166;48.908;1.870;2023-03-25T11:38:44;100036.09;;;13.36;67.62
71361;BME280;59166;48.908;1.870;2023-03-25T11:43:47;100025.25;;;13.88;66.32
71361;BME280;59166;48.908;1.870;2023-03-25T11:49:27;100027.63;;;13.71;70.65
71361;BME280;59166;48.908;1.870;2023-03-25T11:54:41;100032.06;;;13.28;70.48
71361;BME280;59166;48.908;1.870;2023-03-25T11:59:49;100040.00;;;12.86;71.43
71361;BME280;59166;48.908;1.870;2023-03-25T12:05:11;100025.41;;;13.16;70.17
71361;BME280;59166;48.908;1.870;2023-03-25T12:10:37;100018.38;;;13.96;71.07
71361;BME280;59166;48.908;1.870;2023-03-25T12:15:50;100019.84;;;13.60;67.19
71361;BME280;59166;48.908;1.870;2023-03-25T12:21:19;100012.00;;;13.29;68.30
71361;BME280;59166;48.908;1.870;2023-03-25T12:26:35;100007.66;;;13.00;70.36
71361;BME280;59166;48.908;1.870;2023-03-25T12:31:51;100005.03;;;12.84;68.40
71361;BME280;59166;48.908;1.870;2023-03-25T12:37:35;100006.13;;;13.17;68.61
71361;BME280;59166;48.908;1.870;2023-03-25T12:48:41;100003.28;;;14.09;62.91
71361;BME280;59166;48.908;1.870;2023-03-25T12:54:27;99993.41;;;14.18;63.10
71361;BME280;59166;48.908;1.870;2023-03-25T12:59:52;99989.47;;;14.48;63.56
71361;BME280;59166;48.908;1.870;2023-03-25T13:05:09;99987.09;;;14.22;60.34
71361;BME280;59166;48.908;1.870;2023-03-25T13:10:16;99994.66;;;14.25;59.94
71361;BME280;59166;48.908;1.870;2023-03-25T13:15:21;99997.38;;;14.25;59.63
71361;BME280;59166;48.908;1.870;2023-03-25T13:20:36;99974.72;;;14.35;56.54
71361;BME280;59166;48.908;1.870;2023-03-25T13:25:46;99974.72;;;14.72;56.22
71361;BME280;59166;48.908;1.870;2023-03-25T13:31:00;99973.31;;;14.75;56.28
71361;BME280;59166;48.908;1.870;2023-03-25T13:36:24;99978.16;;;14.78;55.82
71361;BME280;59166;48.908;1.870;2023-03-25T13:41:30;99976.47;;;14.82;57.79
71361;BME280;59166;48.908;1.870;2023-03-25T13:46:37;99978.06;;;15.02;56.28
71361;BME280;59166;48.908;1.870;2023-03-25T13:51:42;99998.63;;;15.40;56.33
71361;BME280;59166;48.908;1.870;2023-03-25T13:57:11;99993.06;;;14.99;55.83
71361;BME280;59166;48.908;1.870;2023-03-25T14:02:35;99989.03;;;14.78;58.04
71361;BME280;59166;48.908;1.870;2023-03-25T14:13:20;99983.00;;;14.81;57.25
71361;BME280;59166;48.908;1.870;2023-03-25T14:18:23;99986.78;;;15.17;54.79
71361;BME280;59166;48.908;1.870;2023-03-25T14:23:24;99980.47;;;15.35;53.76
71361;BME280;59166;48.908;1.870;2023-03-25T14:28:36;99988.19;;;15.15;56.05
71361;BME280;59166;48.908;1.870;2023-03-25T14:34:12;99974.16;;;15.08;55.86
71361;BME280;59166;48.908;1.870;2023-03-25T14:39:37;99977.63;;;14.57;57.13
71361;BME280;59166;48.908;1.870;2023-03-25T14:44:41;99985.13;;;14.28;58.60
71361;BME280;59166;48.908;1.870;2023-03-25T14:49:53;99960.16;;;14.63;56.35
71361;BME280;59166;48.908;1.870;2023-03-25T14:54:54;99965.06;;;14.99;56.10
71361;BME280;59166;48.908;1.870;2023-03-25T14:59:59;99957.22;;;14.60;58.09
71361;BME280;59166;48.908;1.870;2023-03-25T15:05:03;99965.34;;;14.78;56.89
71361;BME280;59166;48.908;1.870;2023-03-25T15:10:20;99960.78;;;14.92;56.11
71361;BME280;59166;48.908;1.870;2023-03-25T15:15:29;99957.97;;;15.16;54.49
71361;BME280;59166;48.908;1.870;2023-03-25T15:20:33;99963.41;;;15.16;55.04
71361;BME280;59166;48.908;1.870;2023-03-25T15:25:34;99976.22;;;15.29;54.54
71361;BME280;59166;48.908;1.870;2023-03-25T15:31:05;99969.41;;;15.00;55.09
71361;BME280;59166;48.908;1.870;2023-03-25T15:36:28;99973.69;;;15.19;55.66
71361;BME280;59166;48.908;1.870;2023-03-25T15:41:48;99971.00;;;14.82;54.27
71361;BME280;59166;48.908;1.870;2023-03-25T15:47:17;99971.38;;;14.94;54.82
71361;BME280;59166;48.908;1.870;2023-03-25T15:52:37;99972.78;;;14.73;54.51
71361;BME280;59166;48.908;1.870;2023-03-25T15:57:47;99983.44;;;14.69;55.20
71361;BME280;59166;48.908;1.870;2023-03-25T16:02:53;99987.75;;;14.33;54.59
71361;BME280;59166;48.908;1.870;2023-03-25T16:07:59;99983.00;;;14.25;55.27
71361;BME280;59166;48.908;1.870;2023-03-25T16:13:12;99995.22;;;14.04;55.55
71361;BME280;59166;48.908;1.870;2023-03-25T16:18:15;99996.06;;;13.99;57.51
71361;BME280;59166;48.908;1.870;2023-03-25T16:23:18;99991.19;;;14.01;57.16
71361;BME280;59166;48.908;1.870;2023-03-25T16:28:22;99986.81;;;14.24;54.96
71361;BME280;59166;48.908;1.870;2023-03-25T16:33:28;99979.63;;;14.52;55.71
71361;BME280;59166;48.908;1.870;2023-03-25T16:38:30;99957.13;;;14.46;53.55
71361;BME280;59166;48.908;1.870;2023-03-25T16:43:31;99965.25;;;14.09;54.82
71361;BME280;59166;48.908;1.870;2023-03-25T16:48:36;99971.28;;;14.06;55.52
71361;BME280;59166;48.908;1.870;2023-03-25T16:53:39;99971.47;;;13.90;54.88
71361;BME280;59166;48.908;1.870;2023-03-25T16:58:57;99965.25;;;13.61;56.13
71361;BME280;59166;48.908;1.870;2023-03-25T17:04:08;99957.63;;;13.39;56.65
71361;BME280;59166;48.908;1.870;2023-03-25T17:09:15;99950.75;;;13.23;58.04
71361;BME280;59166;48.908;1.870;2023-03-25T17:14:18;99953.59;;;13.08;61.04
71361;BME280;59166;48.908;1.870;2023-03-25T17:19:22;99930.91;;;12.99;60.54
71361;BME280;59166;48.908;1.870;2023-03-25T17:24:25;99929.91;;;12.90;61.56
71361;BME280;59166;48.908;1.870;2023-03-25T17:29:26;99914.81;;;12.79;62.93
71361;BME280;59166;48.908;1.870;2023-03-25T17:34:30;99923.22;;;12.77;62.90
71361;BME280;59166;48.908;1.870;2023-03-25T17:39:32;99924.66;;;12.70;63.81
71361;BME280;59166;48.908;1.870;2023-03-25T17:44:34;99927.13;;;12.66;64.27
71361;BME280;59166;48.908;1.870;2023-03-25T17:49:37;99929.88;;;12.61;66.00
71361;BME280;59166;48.908;1.870;2023-03-25T17:54:38;99927.50;;;12.50;66.51
71361;BME280;59166;48.908;1.870;2023-03-25T17:59:39;99925.09;;;12.43;66.17
71361;BME280;59166;48.908;1.870;2023-03-25T18:04:41;99928.13;;;12.42;67.49
71361;BME280;59166;48.908;1.870;2023-03-25T18:09:42;99926.81;;;12.34;66.52
71361;BME280;59166;48.908;1.870;2023-03-25T18:14:42;99932.53;;;12.32;67.26
71361;BME280;59166;48.908;1.870;2023-03-25T18:19:44;99936.00;;;12.33;67.02
71361;BME280;59166;48.908;1.870;2023-03-25T18:24:45;99935.22;;;12.27;67.48
71361;BME280;59166;48.908;1.870;2023-03-25T18:29:46;99939.25;;;12.30;67.29
71361;BME280;59166;48.908;1.870;2023-03-25T18:34:48;99933.63;;;12.21;67.73
71361;BME280;59166;48.908;1.870;2023-03-25T18:39:49;99927.00;;;11.99;67.21
71361;BME280;59166;48.908;1.870;2023-03-25T18:44:49;99928.91;;;11.93;67.49
71361;BME280;59166;48.908;1.870;2023-03-25T18:49:52;99920.56;;;11.84;67.60
71361;BME280;59166;48.908;1.870;2023-03-25T18:54:54;99902.69;;;11.83;69.21
71361;BME280;59166;48.908;1.870;2023-03-25T18:59:54;99887.84;;;11.81;69.88
71361;BME280;59166;48.908;1.870;2023-03-25T19:04:56;99891.09;;;11.78;70.84
71361;BME280;59166;48.908;1.870;2023-03-25T19:09:57;99883.22;;;11.81;71.17
71361;BME280;59166;48.908;1.870;2023-03-25T19:14:58;99879.72;;;11.76;71.72
71361;BME280;59166;48.908;1.870;2023-03-25T19:20:00;99886.25;;;11.75;72.33
71361;BME280;59166;48.908;1.870;2023-03-25T19:25:01;99885.69;;;11.73;72.93
71361;BME280;59166;48.908;1.870;2023-03-25T19:30:02;99863.28;;;11.62;73.83
71361;BME280;59166;48.908;1.870;2023-03-25T19:35:05;99837.66;;;11.55;74.20
71361;BME280;59166;48.908;1.870;2023-03-25T19:40:07;99821.69;;;11.53;74.19
71361;BME280;59166;48.908;1.870;2023-03-25T19:45:09;99826.56;;;11.46;74.92
71361;BME280;59166;48.908;1.870;2023-03-25T19:50:14;99825.25;;;11.38;75.38
71361;BME280;59166;48.908;1.870;2023-03-25T19:55:16;99816.06;;;11.40;75.37
71361;BME280;59166;48.908;1.870;2023-03-25T20:00:19;99822.28;;;11.40;75.32
71361;BME280;59166;48.908;1.870;2023-03-25T20:05:21;99825.03;;;11.25;76.05
71361;BME280;59166;48.908;1.870;2023-03-25T20:10:24;99820.22;;;11.17;76.92
71361;BME280;59166;48.908;1.870;2023-03-25T20:15:26;99818.88;;;11.09;78.17
71361;BME280;59166;48.908;1.870;2023-03-25T20:20:28;99810.50;;;11.06;79.06
71361;BME280;59166;48.908;1.870;2023-03-25T20:25:29;99794.03;;;11.02;79.41
71361;BME280;59166;48.908;1.870;2023-03-25T20:30:29;99798.09;;;11.00;80.13
71361;BME280;59166;48.908;1.870;2023-03-25T20:35:32;99782.19;;;10.93;81.23
71361;BME280;59166;48.908;1.870;2023-03-25T20:40:33;99777.59;;;10.89;81.77
71361;BME280;59166;48.908;1.870;2023-03-25T20:45:34;99776.78;;;10.88;82.21
71361;BME280;59166;48.908;1.870;2023-03-25T20:50:36;99767.59;;;10.89;82.44
71361;BME280;59166;48.908;1.870;2023-03-25T20:55:36;99774.91;;;10.83;82.69
71361;BME280;59166;48.908;1.870;2023-03-25T21:00:37;99770.31;;;10.79;82.94
71361;BME280;59166;48.908;1.870;2023-03-25T21:05:39;99773.56;;;10.81;83.07
71361;BME280;59166;48.908;1.870;2023-03-25T21:10:44;99781.91;;;10.84;82.26
71361;BME280;59166;48.908;1.870;2023-03-25T21:15:45;99764.38;;;10.82;82.17
71361;BME280;59166;48.908;1.870;2023-03-25T21:20:48;99776.53;;;10.84;81.93
71361;BME280;59166;48.908;1.870;2023-03-25T21:25:50;99770.56;;;10.88;81.76
71361;BME280;59166;48.908;1.870;2023-03-25T21:31:01;99768.16;;;10.86;81.99
71361;BME280;59166;48.908;1.870;2023-03-25T21:36:04;99763.31;;;10.83;82.58
71361;BME280;59166;48.908;1.870;2023-03-25T21:41:07;99761.41;;;10.78;82.33
71361;BME280;59166;48.908;1.870;2023-03-25T21:46:08;99758.16;;;10.81;82.92
71361;BME280;59166;48.908;1.870;2023-03-25T21:51:11;99747.63;;;10.85;83.24
71361;BME280;59166;48.908;1.870;2023-03-25T21:56:13;99736.28;;;10.83;83.02
71361;BME280;59166;48.908;1.870;2023-03-25T22:01:15;99718.97;;;10.84;82.00
71361;BME280;59166;48.908;1.870;2023-03-25T22:06:19;99710.84;;;10.84;82.47
71361;BME280;59166;48.908;1.870;2023-03-25T22:11:22;99699.53;;;10.82;82.18
71361;BME280;59166;48.908;1.870;2023-03-25T22:16:23;99696.84;;;10.82;81.36
71361;BME280;59166;48.908;1.870;2023-03-25T22:21:27;99684.94;;;10.78;80.31
71361;BME280;59166;48.908;1.870;2023-03-25T22:26:30;99675.78;;;10.69;78.51
71361;BME280;59166;48.908;1.870;2023-03-25T22:31:35;99662.78;;;10.71;76.16
71361;BME280;59166;48.908;1.870;2023-03-25T22:41:57;99640.97;;;10.57;79.46
71361;BME280;59166;48.908;1.870;2023-03-25T22:46:59;99643.97;;;10.56;79.93
71361;BME280;59166;48.908;1.870;2023-03-25T22:52:05;99634.81;;;10.47;81.19
71361;BME280;59166;48.908;1.870;2023-03-25T22:57:07;99635.38;;;10.39;81.97
71361;BME280;59166;48.908;1.870;2023-03-25T23:02:09;99627.28;;;10.33;81.96
71361;BME280;59166;48.908;1.870;2023-03-25T23:07:26;99606.78;;;10.32;82.62
71361;BME280;59166;48.908;1.870;2023-03-25T23:12:32;99593.31;;;10.27;84.68
71361;BME280;59166;48.908;1.870;2023-03-25T23:17:36;99582.31;;;10.09;87.06
71361;BME280;59166;48.908;1.870;2023-03-25T23:22:48;99567.22;;;9.98;89.67
71361;BME280;59166;48.908;1.870;2023-03-25T23:27:48;99553.50;;;9.84;91.86
71361;BME280;59166;48.908;1.870;2023-03-25T23:32:49;99528.44;;;9.78;92.75
71361;BME280;59166;48.908;1.870;2023-03-25T23:37:51;99506.59;;;9.70;93.68
71361;BME280;59166;48.908;1.870;2023-03-25T23:42:52;99505.00;;;9.64;94.69
71361;BME280;59166;48.908;1.870;2023-03-25T23:47:52;99500.44;;;9.54;96.09
71361;BME280;59166;48.908;1.870;2023-03-25T23:52:54;99487.78;;;9.50;97.66
71361;BME280;59166;48.908;1.870;2023-03-25T23:57:55;99471.09;;;9.38;99.42
